Terminal Aerodrome Forecast
Issued by NWS Topeka, KS

Home | Current Version | Previous Version | Graphics & Text | Print | Product List | Glossary On
Versions: 1 2 3 4 5 6 7 8 9 10 11 12 13 14 15 16 17
000
FTUS43 KTOP 240806 AAB
TAFTOP
TAF AMD
KTOP 240806Z 2408/2506 14006KT P6SM FEW020 BKN200
     FM240900 15007KT P6SM VCTS BKN018 OVC050CB
      TEMPO 2411/2413 4SM TSRA
     FM241600 16008KT P6SM SCT025 BKN150=

USA.gov is the U.S. government's official web portal to all federal, state and local government web resources and services.